Time;durP1;ratioP1;P1;durP2;ratioP2;P2;SDS_P1;SDS_P2;PMS_P1;PMS_P2;Temp;Humidity;BMP_temperature;BMP_pressure;BME280_temperature;BME280_humidity;BME280_pressure;Samples;Min_cycle;Max_cycle;Signal;HPM_P1;HPM_P2
2023/03/29 10:40:25;;;;;;;4.43;2.50;;;17.00;99.90;;;;;;4786089;23;20500;-86
2023/03/29 10:47:01;;;;;;;4.80;3.10;;;17.90;99.90;;;;;;4974194;28;20507;-84
2023/03/29 10:53:31;;;;;;;6.80;3.27;;;18.20;99.90;;;;;;4942527;28;20494;-84
2023/03/29 11:00:04;;;;;;;6.60;2.90;;;18.90;99.90;;;;;;4955822;28;20937;-86
2023/03/29 11:03:11;;;;;;;4.30;2.90;;;19.50;99.90;;;;;;4957534;28;21015;-84
2023/03/29 11:06:22;;;;;;;4.97;3.30;;;20.30;99.90;;;;;;4975822;28;20450;-88
2023/03/29 11:13:07;;;;;;;5.97;2.30;;;21.90;99.90;;;;;;4976221;28;20445;-86
2023/03/29 11:16:03;;;;;;;4.80;2.60;;;22.30;99.90;;;;;;4976128;28;20585;-86
2023/03/29 11:18:53;;;;;;;7.47;2.90;;;22.20;99.90;;;;;;4984987;28;20441;-85
2023/03/29 11:21:38;;;;;;;6.43;2.77;;;21.70;99.90;;;;;;4986044;28;20437;-85
2023/03/29 11:24:26;;;;;;;5.00;2.47;;;21.40;99.90;;;;;;4984163;28;20493;-86
2023/03/29 11:27:19;;;;;;;6.67;2.77;;;21.40;99.90;;;;;;4977010;28;20471;-86
2023/03/29 11:30:32;;;;;;;;;;;;;;;;;;;;;
2023/03/29 13:17:54;;;;;;;3.63;1.57;;;21.50;99.90;;;;;;4915283;29;20460;-83
2023/03/29 13:21:24;;;;;;;;;;;;;;;;;;;;;
2023/03/29 13:27:36;;;;;;;3.70;1.60;;;21.20;99.90;;;;;;4955567;28;20452;-84
2023/03/29 13:37:50;;;;;;;;;;;;;;;;;;;;;
2023/03/29 13:41:07;;;;;;;3.07;1.93;;;21.90;99.90;;;;;;4905266;29;20525;-82
2023/03/29 13:48:03;;;;;;;4.73;2.33;;;22.00;99.90;;;;;;4893293;29;20462;-86
2023/03/29 13:51:31;;;;;;;;;;;;;;;;;;;;;
2023/03/29 13:58:34;;;;;;;4.27;2.23;;;21.90;99.90;;;;;;4923483;28;20472;-83
2023/03/29 14:04:31;;;;;;;;;;;;;;;;;;;;;
2023/03/29 14:07:57;;;;;;;6.23;2.67;;;21.60;99.90;;;;;;4920681;29;20535;-85
2023/03/29 14:11:01;;;;;;;4.63;2.00;;;21.60;99.90;;;;;;4963827;28;20441;-83
2023/03/29 14:14:00;;;;;;;5.97;2.00;;;21.60;99.90;;;;;;4949364;28;20553;-83
2023/03/29 14:16:31;;;;;;;3.07;2.00;;;21.60;99.90;;;;;;4965231;28;20521;-83
2023/03/29 14:22:12;;;;;;;5.93;1.83;;;21.60;99.90;;;;;;4961414;28;20428;-82
2023/03/29 14:25:08;;;;;;;5.83;2.10;;;21.60;99.90;;;;;;4968639;28;20469;-84
2023/03/29 14:28:00;;;;;;;3.80;1.90;;;21.60;99.90;;;;;;4981171;28;20442;-83
2023/03/29 14:31:00;;;;;;;3.40;2.03;;;21.60;99.90;;;;;;4959502;28;20445;-83
2023/03/29 14:33:43;;;;;;;3.23;1.60;;;21.60;99.90;;;;;;4960963;28;20510;-83
2023/03/29 14:36:34;;;;;;;2.23;1.43;;;21.40;99.90;;;;;;4970317;28;20478;-83
2023/03/29 14:39:33;;;;;;;3.73;1.97;;;21.20;99.90;;;;;;4965616;28;20443;-82
2023/03/29 14:42:25;;;;;;;2.60;1.80;;;21.00;99.90;;;;;;4981295;28;20445;-84
2023/03/29 14:45:08;;;;;;;5.00;2.30;;;20.80;99.90;;;;;;4967863;28;20459;-82
2023/03/29 14:47:57;;;;;;;5.10;2.13;;;20.80;99.90;;;;;;4985285;28;20462;-82
2023/03/29 14:50:53;;;;;;;6.00;2.30;;;20.60;99.90;;;;;;4977918;28;20452;-85
2023/03/29 14:57:05;;;;;;;2.67;2.17;;;20.30;99.90;;;;;;4959309;28;20453;-84
2023/03/29 14:59:53;;;;;;;;;;;;;;;;;;;;;
2023/03/29 15:02:45;;;;;;;4.57;2.00;;;19.90;99.90;;;;;;4985157;28;20506;-85
2023/03/29 15:05:42;;;;;;;2.13;1.70;;;19.80;99.90;;;;;;4958069;28;20558;-83
2023/03/29 15:08:40;;;;;;;3.97;1.70;;;19.80;99.90;;;;;;4981632;28;20456;-83
2023/03/29 15:11:38;;;;;;;5.00;2.00;;;19.80;99.90;;;;;;4979540;28;20508;-84
2023/03/29 15:14:10;;;;;;;4.10;2.00;;;19.90;99.90;;;;;;4987508;28;20544;-82
2023/03/29 15:16:43;;;;;;;4.00;2.50;;;19.90;99.90;;;;;;4986039;28;20488;-84
2023/03/29 15:19:43;;;;;;;2.43;1.70;;;19.90;99.90;;;;;;4987228;28;20444;-82
2023/03/29 15:22:23;;;;;;;7.33;2.33;;;19.90;99.90;;;;;;4986589;28;20445;-84
2023/03/29 15:25:12;;;;;;;2.93;2.23;;;19.90;99.90;;;;;;4988003;28;21033;-84
2023/03/29 15:27:46;;;;;;;4.80;2.07;;;20.00;99.90;;;;;;4980626;28;20461;-84
2023/03/29 15:40:06;;;;;;;3.20;2.20;;;20.10;99.90;;;;;;4976331;28;20462;-83
2023/03/29 15:42:38;;;;;;;;;;;;;;;;;;;;;
2023/03/29 15:45:35;;;;;;;4.80;1.77;;;20.30;99.90;;;;;;4989428;28;20553;-84
2023/03/29 15:51:46;;;;;;;;;;;;;;;;;;;;;
2023/03/29 15:54:53;;;;;;;4.03;1.70;;;20.50;99.90;;;;;;4980613;28;20503;-84
2023/03/29 15:57:25;;;;;;;2.73;2.07;;;20.50;99.90;;;;;;4991619;28;20428;-83
2023/03/29 16:00:23;;;;;;;4.00;2.10;;;20.50;99.90;;;;;;4988146;28;20419;-84
2023/03/29 16:02:58;;;;;;;3.00;2.13;;;20.40;99.90;;;;;;4987194;28;20462;-83
2023/03/29 16:05:55;;;;;;;3.83;1.93;;;20.30;99.90;;;;;;4973840;28;20445;-83
2023/03/29 16:08:41;;;;;;;5.97;3.73;;;20.30;99.90;;;;;;4977135;28;20501;-84
2023/03/29 16:11:10;;;;;;;7.07;4.10;;;20.10;99.90;;;;;;4977245;28;20520;-84
2023/03/29 16:13:49;;;;;;;2.67;1.73;;;20.00;99.90;;;;;;4986435;28;20473;-82
2023/03/29 16:17:38;;;;;;;;;;;;;;;;;;;;;
2023/03/29 16:20:03;;;;;;;4.60;2.03;;;19.80;99.90;;;;;;4979053;28;20446;-82
2023/03/29 16:23:08;;;;;;;3.60;2.70;;;19.70;99.90;;;;;;4948828;23;20521;-82
2023/03/29 16:29:47;;;;;;;;;;;;;;;;;;;;;
2023/03/29 16:33:07;;;;;;;;;;;;;;;;;;;;;
2023/03/29 16:36:33;;;;;;;;;;;;;;;;;;;;;
2023/03/29 16:39:25;;;;;;;2.70;1.80;;;19.30;99.90;;;;;;4987424;28;20528;-82
2023/03/29 16:42:13;;;;;;;2.50;1.53;;;19.30;99.90;;;;;;4894308;28;20446;-82
2023/03/29 16:45:17;;;;;;;;;;;;;;;;;;;;;
2023/03/29 16:48:53;;;;;;;2.93;1.53;;;19.00;99.90;;;;;;4974655;28;20478;-83
2023/03/29 16:54:30;;;;;;;2.07;1.40;;;18.70;99.90;;;;;;4952032;28;20483;-82
2023/03/29 17:00:57;;;;;;;3.87;1.53;;;18.60;99.90;;;;;;4902177;28;20445;-81
2023/03/29 17:07:06;;;;;;;3.53;2.33;;;18.40;99.90;;;;;;4986954;28;20449;-83
2023/03/29 17:17:38;;;;;;;;;;;;;;;;;;;;;
2023/03/29 17:39:00;;;;;;;5.47;2.27;;;17.60;99.90;;;;;;4924338;28;20529;-83
2023/03/29 17:44:58;;;;;;;4.80;2.30;;;17.50;99.90;;;;;;4955629;28;20556;-82
2023/03/29 17:52:07;;;;;;;;;;;;;;;;;;;;;
2023/03/29 17:55:38;;;;;;;13.03;5.40;;;17.20;1.00;;;;;;4929637;28;20492;-83
